Date,TemperatureHighF,TemperatureAvgF,TemperatureLowF,DewpointHighF,DewpointAvgF,DewpointLowF,HumidityHigh,HumidityAvg,HumidityLow,PressureMaxIn,PressureMinIn,WindSpeedMaxMPH,WindSpeedAvgMPH,GustSpeedMaxMPH,PrecipitationSumIn
2013-1-1,14.0,-2.4,-22.0,12.0,-6.9,-27.0,90,80,70,0.00,40.00,12,3,18,0.00
2013-1-2,21.0,17.8,13.0,19.0,16.0,10.0,93,91,89,0.00,40.00,8,4,12,0.00
2013-1-3,21.0,15.2,9.0,19.0,8.6,1.0,91,76,43,0.00,40.00,12,8,19,0.00
2013-1-4,33.0,16.9,1.0,19.0,11.4,-2.0,90,80,55,0.00,40.00,12,4,19,0.00
2013-1-5,34.0,14.3,-4.0,23.0,9.9,-8.0,93,84,57,0.00,40.00,11,4,16,0.00
2013-1-6,24.0,16.0,11.0,16.0,8.7,1.0,93,74,46,0.00,40.00,10,4,16,0.00
2013-1-7,39.0,25.5,15.0,23.0,17.2,7.0,88,72,49,0.00,40.00,14,7,24,0.00
2013-1-8,33.0,21.8,0.0,27.0,17.1,-2.0,93,82,63,0.00,40.00,10,4,16,0.00
2013-1-9,31.0,25.6,12.0,27.0,19.5,9.0,90,78,65,0.00,40.00,24,9,37,0.00
2013-1-10,44.0,33.2,20.0,32.0,19.3,12.0,94,60,32,0.00,40.00,17,9,28,0.00
2013-1-11,36.0,34.3,33.0,36.0,33.7,32.0,96,96,94,0.00,40.00,8,5,13,0.00
2013-1-12,37.0,18.0,4.0,36.0,12.5,-2.0,96,79,62,0.00,40.00,17,8,24,0.00
2013-1-13,9.0,3.4,-1.0,0.0,-2.6,-6.0,83,75,61,0.00,40.00,9,4,16,0.00
2013-1-14,12.0,4.5,-1.0,0.0,-2.6,-6.0,83,72,52,0.00,40.00,10,5,17,0.00
2013-1-15,23.0,14.2,6.0,9.0,4.4,0.0,80,66,46,0.00,40.00,16,7,22,0.00
2013-1-16,25.0,15.5,-3.0,23.0,7.5,-13.0,93,71,51,0.00,40.00,16,10,24,0.00
2013-1-17,8.0,-2.3,-12.0,-4.0,-10.5,-18.0,78,67,53,0.00,40.00,12,4,19,0.00
2013-1-18,18.0,12.1,-5.0,16.0,7.8,-9.0,89,83,78,0.00,40.00,9,4,12,0.01
2013-1-19,26.0,13.9,-4.0,23.0,9.4,-9.0,93,82,63,0.00,40.00,23,9,34,0.01
2013-1-20,1.0,-7.5,-18.0,-9.0,-13.8,-22.0,80,73,57,0.00,40.00,13,6,21,0.01
2013-1-21,-9.0,-16.0,-22.0,-18.0,-22.9,-27.0,77,71,57,0.00,40.00,14,8,23,0.00
2013-1-22,0.0,-14.9,-31.0,-13.0,-22.5,-36.0,77,69,51,0.00,40.00,10,3,15,0.00
2013-1-23,2.0,-6.6,-18.0,-4.0,-13.9,-27.0,81,70,53,0.00,40.00,19,6,28,0.00
2013-1-24,5.0,-12.9,-32.0,0.0,-20.1,-38.0,78,69,54,0.00,40.00,12,4,19,0.00
2013-1-25,13.0,6.1,-11.0,7.0,0.2,-15.0,85,76,65,0.00,40.00,11,5,18,0.01
2013-1-26,16.0,-1.1,-23.0,7.0,-7.8,-27.0,84,74,58,0.00,40.00,11,4,18,0.00
2013-1-27,31.0,18.5,-2.0,25.0,10.8,-6.0,87,73,49,0.00,40.00,10,5,14,0.00
2013-1-28,30.0,27.4,19.0,28.0,25.6,18.0,96,92,82,0.00,40.00,7,3,11,0.00
2013-1-29,31.0,27.5,20.0,28.0,24.7,16.0,96,90,75,0.00,40.00,12,6,21,0.00
2013-1-30,20.0,10.7,4.0,16.0,5.0,-2.0,86,77,67,0.00,40.00,16,10,24,0.00
2013-1-31,4.0,-1.2,-14.0,-2.0,-9.8,-20.0,77,67,60,0.00,40.00,16,10,26,0.00
2013-2-1,-2.0,-11.5,-25.0,-13.0,-20.8,-29.0,75,63,46,0.00,40.00,9,4,12,0.00
2013-2-2,10.0,-2.8,-27.0,-2.0,-13.5,-33.0,76,61,40,0.00,40.00,7,2,11,0.00
2013-2-3,8.0,-0.6,-21.0,0.0,-9.3,-26.0,78,67,47,0.00,40.00,13,6,21,0.00
2013-2-4,9.0,-8.0,-32.0,3.0,-16.8,-36.0,85,66,49,0.00,40.00,7,2,12,0.00
2013-2-5,19.0,9.3,-1.0,7.0,1.7,-9.0,89,72,43,0.00,40.00,12,4,20,0.01
2013-2-6,20.0,13.0,3.0,16.0,7.6,-2.0,88,78,61,0.00,40.00,9,4,13,0.01
2013-2-7,26.0,19.9,6.0,18.0,15.4,-0.0,94,82,64,0.00,40.00,7,4,15,0.01
2013-2-8,22.0,8.1,-12.0,14.0,3.5,-15.0,90,82,65,0.00,40.00,10,4,14,0.00
2013-2-9,27.0,21.8,14.0,25.0,18.5,10.0,94,87,75,0.00,40.00,11,6,17,0.00
2013-2-10,27.0,25.6,24.0,25.0,24.1,23.0,96,93,85,0.00,40.00,21,8,30,0.12
2013-2-11,27.0,22.2,18.0,25.0,16.9,14.0,93,80,70,0.00,40.00,17,9,26,0.01
2013-2-12,32.0,20.5,7.0,19.0,14.0,5.0,90,76,55,0.00,40.00,10,5,16,0.00
2013-2-13,33.0,23.3,6.0,23.0,18.2,3.0,91,81,65,0.00,40.00,8,3,10,0.00
2013-2-14,23.0,15.6,3.0,21.0,7.5,-6.0,93,71,41,0.00,40.00,13,6,20,0.00
2013-2-15,14.0,4.5,-6.0,1.0,-2.8,-9.0,85,72,52,0.00,40.00,14,5,21,0.00
2013-2-16,22.0,-0.3,-22.0,5.0,-9.9,-26.0,85,66,34,0.00,40.00,4,1,6,0.00
2013-2-17,25.0,9.8,-21.0,14.0,1.4,-26.0,82,69,61,0.00,40.00,14,7,22,0.00
2013-2-18,26.0,20.2,5.0,23.0,14.9,0.0,90,80,65,0.00,40.00,18,7,29,0.00
2013-2-19,5.0,-0.4,-7.0,0.0,-8.2,-13.0,80,70,56,0.00,40.00,21,12,30,0.00
2013-2-20,21.0,1.8,-14.0,-8.0,-13.1,-22.0,81,53,25,0.00,40.00,12,4,18,0.00
2013-2-21,28.0,7.5,-17.0,19.0,-0.3,-22.0,95,71,46,0.00,40.00,12,6,18,0.00
2013-2-22,30.0,25.6,20.0,25.0,22.0,19.0,96,86,67,0.00,40.00,15,7,22,0.00
2013-2-23,35.0,26.0,19.0,23.0,19.1,18.0,93,77,54,0.00,40.00,9,4,14,0.00
2013-2-24,41.0,21.8,-2.0,23.0,12.5,-4.0,91,70,39,0.00,40.00,7,2,10,0.00
2013-2-25,39.0,21.0,7.0,19.0,11.6,5.0,93,70,37,0.00,40.00,9,3,14,0.00
2013-2-26,45.0,22.5,-1.0,23.0,13.0,-4.0,90,71,39,0.00,40.00,9,3,14,0.00
2013-2-27,36.0,24.5,10.0,23.0,17.5,9.0,94,76,56,0.00,40.00,13,6,22,0.00
2013-2-28,34.0,25.6,18.0,19.0,14.3,5.0,79,62,45,0.00,40.00,12,7,20,0.00
2013-3-1,32.0,16.5,-1.0,7.0,0.0,-9.0,75,50,26,0.00,40.00,7,4,12,0.00
2013-3-2,36.0,10.1,-15.0,9.0,-4.1,-18.0,86,59,23,0.00,40.00,6,1,9,0.00
2013-3-3,34.0,16.5,-3.0,14.0,2.9,-6.0,90,60,28,0.00,40.00,12,5,16,0.00
2013-3-4,31.0,23.9,20.0,23.0,15.8,12.0,95,72,47,0.00,40.00,17,10,27,0.01
2013-3-5,24.0,22.2,17.0,23.0,19.6,14.0,95,90,81,0.00,40.00,12,6,19,0.01
2013-3-6,27.0,11.5,-6.0,16.0,5.9,-9.0,93,80,56,0.00,40.00,10,4,17,0.01
2013-3-7,35.0,12.7,-16.0,18.0,3.6,-18.0,92,70,40,0.00,40.00,10,4,17,0.00
2013-3-8,40.0,25.4,18.0,25.0,19.6,16.0,95,79,48,0.00,40.00,9,4,13,0.00
2013-3-9,33.0,29.8,20.0,32.0,28.3,18.0,97,94,86,0.00,40.00,11,4,16,0.03
2013-3-10,31.0,26.9,22.0,30.0,23.1,18.0,97,85,77,0.00,40.00,0,0,0,0.02
2013-3-11,27.0,21.9,19.0,19.0,16.4,14.0,88,79,61,0.00,40.00,11,3,19,0.00
2013-3-12,22.0,17.2,11.0,16.0,9.9,1.0,91,73,60,0.00,40.00,16,7,23,0.00
2013-3-13,35.0,16.6,-3.0,9.0,3.1,-8.0,84,59,31,0.00,40.00,10,4,15,0.00
2013-3-14,41.0,21.8,-4.0,27.0,14.5,-8.0,88,74,55,0.00,40.00,9,4,14,0.00
2013-3-15,35.0,24.2,14.0,28.0,14.9,5.0,92,70,36,0.00,40.00,11,6,17,0.02
2013-3-16,22.0,11.0,-1.0,10.0,2.9,-13.0,91,71,47,0.00,40.00,19,7,27,0.02
2013-3-17,25.0,3.1,-27.0,12.0,-8.0,-31.0,78,62,38,0.00,40.00,13,6,19,0.00
2013-3-18,27.0,21.4,16.0,23.0,17.0,9.0,94,83,60,0.00,40.00,19,10,30,0.01
2013-3-19,23.0,13.8,7.0,10.0,3.1,-4.0,83,64,41,0.00,40.00,23,15,34,0.01
2013-3-20,18.0,10.1,3.0,3.0,-0.4,-6.0,76,62,51,0.00,40.00,15,9,25,0.00
2013-3-21,30.0,16.4,4.0,12.0,5.7,-2.0,83,64,44,0.00,40.00,9,4,12,0.00
2013-3-22,41.0,16.5,-12.0,19.0,6.6,-15.0,85,67,40,0.00,40.00,7,2,11,0.00
2013-3-23,45.0,22.8,0.0,21.0,13.0,-2.0,91,69,34,0.00,40.00,7,2,11,0.00
2013-3-24,32.0,27.1,20.0,23.0,19.3,14.0,90,73,57,0.00,40.00,10,4,16,0.00
2013-3-25,37.0,23.9,4.0,19.0,13.9,1.0,91,67,44,0.00,40.00,17,6,24,0.00
2013-3-26,40.0,31.7,24.0,25.0,20.7,18.0,78,65,46,0.00,40.00,8,3,12,0.00
2013-3-27,47.0,33.8,19.0,27.0,19.5,12.0,88,60,31,0.00,40.00,10,2,12,0.00
2013-3-28,50.0,28.8,6.0,23.0,14.0,5.0,93,61,26,0.00,40.00,7,2,11,0.00
2013-3-29,51.0,33.6,10.0,32.0,21.7,9.0,95,66,33,0.00,40.00,11,4,17,0.00
2013-3-30,54.0,42.1,35.0,39.0,29.5,-99.9,96,67,29,0.00,40.00,16,5,22,0.00
2013-3-31,36.0,29.3,21.0,28.0,16.5,3.0,93,60,39,0.00,40.00,21,10,32,0.00
2013-4-1,32.0,22.1,10.0,9.0,7.6,5.0,80,54,36,0.00,40.00,18,10,28,0.00
2013-4-2,35.0,22.4,8.0,14.0,6.8,0.0,90,55,28,0.00,40.00,12,6,22,0.00
2013-4-3,42.0,25.7,1.0,28.0,11.5,0.0,90,59,31,0.00,40.00,17,7,27,0.00
2013-4-4,41.0,35.5,26.0,30.0,22.0,12.0,93,60,34,0.00,40.00,18,8,26,0.00
2013-4-5,39.0,27.0,10.0,23.0,13.2,9.0,92,59,34,0.00,40.00,11,5,16,0.00
2013-4-6,34.0,31.7,27.0,32.0,30.1,23.0,97,93,83,0.00,40.00,13,6,19,0.01
2013-4-7,40.0,34.2,31.0,32.0,29.1,27.0,95,82,61,0.00,40.00,9,4,13,0.01
2013-4-8,42.0,35.8,32.0,34.0,31.7,30.0,97,85,67,0.00,40.00,10,4,16,0.02
2013-4-9,40.0,32.8,25.0,30.0,20.1,14.0,86,61,39,0.00,40.00,14,7,26,0.00
2013-4-10,46.0,33.9,25.0,14.0,12.3,10.0,57,42,24,0.00,40.00,14,7,22,0.00
2013-4-11,32.0,29.0,26.0,25.0,19.0,10.0,93,66,42,0.00,40.00,24,13,34,0.00
2013-4-12,31.0,26.8,22.0,25.0,23.1,19.0,96,87,71,0.00,40.00,14,7,21,0.03
2013-4-13,37.0,25.0,13.0,23.0,17.6,10.0,94,75,48,0.00,40.00,9,4,14,0.01
2013-4-14,43.0,25.7,5.0,30.0,17.6,3.0,99,75,40,0.00,40.00,20,9,33,0.02
2013-4-15,37.0,33.2,30.0,34.0,30.7,27.0,99,90,81,0.00,40.00,17,8,33,0.01
2013-4-16,40.0,34.6,30.0,32.0,25.9,21.0,96,72,49,0.00,40.00,12,5,18,0.00
2013-4-17,35.0,32.6,29.0,28.0,27.3,27.0,96,80,72,0.00,40.00,12,6,21,0.00
2013-4-18,33.0,29.8,27.0,30.0,28.4,27.0,97,94,79,0.00,40.00,19,8,26,0.23
2013-4-19,32.0,26.0,7.0,28.0,16.7,-2.0,97,70,33,0.00,40.00,22,14,37,0.08
2013-4-20,45.0,21.1,-7.0,10.0,2.5,-11.0,84,50,22,0.00,40.00,8,3,14,0.01
2013-4-21,37.0,30.5,20.0,34.0,24.6,10.0,96,78,56,0.00,40.00,17,7,26,0.00
2013-4-22,37.0,33.9,29.0,34.0,24.1,19.0,96,69,47,0.00,40.00,10,5,16,0.00
2013-4-23,42.0,34.4,28.0,27.0,17.7,10.0,90,55,29,0.00,40.00,15,6,22,0.00
2013-4-24,45.0,29.2,12.0,32.0,19.8,10.0,94,71,32,0.00,40.00,10,3,16,0.00
2013-4-25,45.0,33.3,21.0,28.0,21.6,14.0,96,67,34,0.00,40.00,12,4,19,0.00
2013-4-26,65.0,47.5,31.0,36.0,29.8,21.0,84,53,27,0.00,40.00,10,5,17,0.00
2013-4-27,69.0,50.5,26.0,36.0,29.7,25.0,94,52,25,0.00,40.00,13,5,19,0.00
2013-4-28,69.0,56.0,45.0,46.0,43.6,28.0,93,64,45,0.00,40.00,16,7,26,0.00
2013-4-29,67.0,49.6,26.0,45.0,28.9,23.0,96,53,20,0.00,40.00,11,4,17,0.00
2013-4-30,68.0,55.3,45.0,54.0,39.6,25.0,95,61,22,0.00,40.00,23,10,32,0.00
2013-5-1,49.0,37.5,32.0,32.0,25.3,21.0,73,61,52,0.00,40.00,14,8,21,0.00
2013-5-2,40.0,34.1,30.0,25.0,22.4,21.0,70,62,52,0.00,40.00,14,8,22,0.00
2013-5-3,38.0,32.6,27.0,32.0,26.2,21.0,96,77,60,0.00,40.00,11,6,18,0.00
2013-5-4,39.0,34.5,31.0,36.0,32.7,30.0,96,92,85,0.00,40.00,9,5,13,0.00
2013-5-5,63.0,46.6,35.0,41.0,37.1,34.0,96,72,45,0.00,40.00,7,3,13,0.00
2013-5-6,76.0,53.2,30.0,45.0,39.1,28.0,96,64,32,0.00,40.00,7,2,17,0.00
2013-5-7,78.0,58.2,35.0,46.0,39.2,34.0,96,57,23,0.00,40.00,12,4,19,0.00
2013-5-8,77.0,57.5,36.0,48.0,41.2,36.0,95,60,28,0.00,40.00,12,3,17,0.00
2013-5-9,60.0,47.9,34.0,48.0,38.6,25.0,93,71,37,0.00,40.00,12,6,23,0.00
2013-5-10,59.0,41.2,25.0,39.0,21.7,-99.9,93,54,22,0.00,40.00,11,5,16,0.00
2013-5-11,44.0,38.0,34.0,39.0,27.4,-99.9,91,67,52,0.00,40.00,26,13,43,0.00
2013-5-12,52.0,37.2,23.0,23.0,18.9,12.0,88,52,27,0.00,40.00,16,7,24,0.00
2013-5-13,58.0,42.5,20.0,37.0,26.7,19.0,96,59,28,0.00,40.00,19,7,29,0.00
2013-5-14,87.0,56.1,29.0,55.0,39.3,28.0,96,60,24,0.00,40.00,24,8,37,0.00
2013-5-15,78.0,61.1,42.0,46.0,42.0,36.0,92,54,24,0.00,40.00,21,8,32,0.00
2013-5-16,76.0,52.4,32.0,45.0,18.1,-99.9,97,50,22,0.00,40.00,10,4,17,0.00
2013-5-17,69.0,56.3,48.0,39.0,31.9,-99.9,61,46,33,0.00,40.00,17,9,26,0.00
2013-5-18,57.0,53.2,47.0,54.0,49.1,36.0,95,86,53,0.00,40.00,11,5,17,0.00
2013-5-19,69.0,57.8,51.0,57.0,54.1,50.0,96,87,66,0.00,40.00,18,8,30,0.00
2013-5-20,55.0,51.0,48.0,54.0,49.1,46.0,95,92,88,0.00,40.00,24,13,32,0.00
2013-5-21,50.0,47.5,44.0,48.0,45.7,43.0,96,93,86,0.00,40.00,14,7,23,0.00
2013-5-22,65.0,51.6,44.0,48.0,42.0,37.0,96,73,38,0.00,40.00,13,6,23,0.00
2013-5-23,64.0,50.3,35.0,41.0,29.1,25.0,87,48,23,0.00,40.00,11,5,18,0.00
2013-5-24,70.0,50.4,27.0,39.0,29.0,27.0,96,52,23,0.00,40.00,11,5,19,0.00
2013-5-25,65.0,53.9,44.0,41.0,36.7,28.0,88,53,41,0.00,40.00,12,6,20,0.00
2013-5-26,70.0,54.8,35.0,37.0,33.0,27.0,84,46,29,0.00,40.00,19,8,24,0.00
2013-5-27,68.0,56.0,41.0,43.0,36.6,27.0,72,48,37,0.00,40.00,15,7,24,0.00
2013-5-28,71.0,57.6,46.0,52.0,44.7,36.0,84,62,47,0.00,40.00,12,5,17,0.00
2013-5-29,73.0,61.2,45.0,61.0,52.8,41.0,95,74,53,0.00,40.00,12,5,19,0.00
2013-5-30,77.0,66.2,59.0,63.0,60.2,57.0,95,81,52,0.00,40.00,12,8,20,0.00
2013-5-31,78.0,64.5,56.0,61.0,55.2,48.0,95,74,36,0.00,40.00,19,7,38,0.01
2013-6-1,57.0,51.3,45.0,55.0,48.2,39.0,95,88,71,0.00,40.00,15,6,26,0.00
2013-6-2,63.0,50.5,35.0,39.0,34.7,30.0,94,58,29,0.00,40.00,12,6,20,0.00
2013-6-3,69.0,51.5,30.0,43.0,32.0,28.0,95,54,24,0.00,40.00,9,3,13,0.00
2013-6-4,64.0,54.8,46.0,39.0,34.0,28.0,71,46,33,0.00,40.00,12,6,24,0.00
2013-6-5,51.0,47.9,45.0,50.0,44.9,36.0,95,89,62,0.00,40.00,12,5,19,0.00
2013-6-6,61.0,50.0,40.0,46.0,43.3,37.0,93,78,52,0.00,40.00,12,4,17,0.00
2013-6-7,65.0,49.3,33.0,46.0,39.2,32.0,96,73,35,0.00,40.00,7,1,9,0.00
2013-6-8,74.0,56.1,39.0,46.0,42.7,37.0,95,66,33,0.00,40.00,11,4,19,0.00
2013-7-10,76.0,67.7,54.0,55.0,51.5,48.0,93,58,38,0.00,40.00,14,7,26,0.00
2013-7-11,81.0,64.3,45.0,57.0,51.2,45.0,95,67,39,0.00,40.00,10,4,16,0.00
2013-7-12,85.0,73.8,64.0,64.0,60.0,57.0,78,63,48,0.00,40.00,17,8,26,0.00
2013-7-13,76.0,70.0,65.0,68.0,65.4,59.0,94,85,57,0.00,40.00,10,5,19,0.01
2013-7-14,71.0,67.4,64.0,66.0,64.5,59.0,95,90,74,0.00,40.00,7,3,10,0.00
2013-7-15,76.0,68.8,65.0,70.0,66.1,63.0,95,91,78,0.00,40.00,7,2,9,0.00
2013-7-16,89.0,76.9,62.0,70.0,64.3,61.0,95,69,42,0.00,40.00,12,6,18,0.00
2013-7-17,90.0,77.3,68.0,73.0,68.2,64.0,94,75,44,0.00,40.00,10,4,16,0.00
2013-7-18,90.0,78.7,67.0,70.0,67.9,64.0,94,71,46,0.00,40.00,21,6,35,0.00
2013-7-19,78.0,70.6,63.0,68.0,57.6,48.0,94,67,35,0.00,40.00,14,7,24,0.00
2013-7-22,78.0,66.5,54.0,63.0,52.7,50.0,88,61,49,0.00,40.00,17,9,25,0.00
2013-7-23,72.0,57.5,48.0,52.0,47.7,45.0,94,74,41,0.00,40.00,7,4,16,0.00
2013-7-24,75.0,61.0,42.0,55.0,48.4,41.0,95,67,39,0.00,40.00,11,3,15,0.00
2013-7-25,78.0,63.5,50.0,59.0,55.0,48.0,95,76,43,0.00,40.00,9,3,15,0.01
2013-7-26,57.0,53.9,48.0,55.0,49.7,41.0,95,86,63,0.00,40.00,15,6,24,0.00
2013-7-27,54.0,48.4,45.0,50.0,46.0,45.0,95,91,73,0.00,40.00,16,7,26,0.00
2013-7-28,69.0,57.4,48.0,52.0,47.5,45.0,94,73,43,0.00,40.00,11,5,17,0.00
2013-7-29,74.0,58.8,39.0,57.0,47.1,37.0,95,70,38,0.00,40.00,7,2,11,0.00
2013-7-30,73.0,61.2,49.0,63.0,57.0,48.0,95,86,60,0.00,40.00,8,4,14,0.00
2013-7-31,74.0,65.8,55.0,61.0,52.1,46.0,95,64,39,0.00,40.00,16,8,27,0.00
2013-8-1,74.0,62.0,50.0,57.0,51.6,48.0,94,71,43,0.00,40.00,9,4,19,0.00
2013-8-2,71.0,23.9,46.0,55.0,-36.7,-99.9,95,40,10,0.00,40.00,13,2,21,0.00
2013-8-3,-200.0,0.0,200.0,-99.9,-99.9,-99.9,12,11,10,0.00,40.00,0,0,0,0.00
2013-8-4,-200.0,0.0,200.0,-99.9,-99.9,-99.9,11,11,10,0.00,40.00,0,0,0,0.00
2013-8-5,-200.0,0.0,200.0,-99.9,-99.9,-99.9,11,11,10,0.00,40.00,0,0,0,0.00
2013-8-6,-200.0,0.0,200.0,-99.9,-99.9,-99.9,12,11,10,0.00,40.00,0,0,0,0.00
2013-8-7,-200.0,0.0,200.0,-99.9,-99.9,-99.9,12,11,10,0.00,40.00,0,0,0,0.00
2013-8-8,-200.0,0.0,200.0,-99.9,-99.9,-99.9,12,11,10,0.00,40.00,0,0,0,0.00
2013-8-9,-200.0,0.0,200.0,-99.9,-99.9,-99.9,12,11,10,0.00,40.00,0,0,0,0.00
2013-8-10,-200.0,0.0,200.0,-99.9,-99.9,-99.9,12,11,10,0.00,40.00,0,0,0,0.00
2013-8-11,-200.0,0.0,200.0,-99.9,-99.9,-99.9,12,11,10,0.00,40.00,0,0,0,0.00
2013-8-12,-200.0,0.0,200.0,-99.9,-99.9,-99.9,11,11,10,0.00,40.00,0,0,0,0.00
2013-10-19,-200.0,0.0,200.0,-99.9,-99.9,-99.9,0,0,100,0.00,40.00,0,0,0,0.00
2013-10-23,31.0,30.6,30.0,27.0,27.0,27.0,88,86,84,0.00,40.00,0,0,0,0.00
2013-10-24,35.0,32.8,31.0,32.0,28.3,27.0,91,84,75,0.00,40.00,0,0,0,0.00
2013-10-27,34.0,31.6,30.0,27.0,21.5,19.0,74,65,62,0.00,40.00,0,0,0,0.00
2013-10-28,30.0,24.0,23.0,19.0,7.7,-99.9,90,67,62,0.00,40.00,0,0,0,0.00
2013-10-30,40.0,37.3,32.0,39.0,35.3,28.0,99,94,86,0.00,40.00,0,0,0,0.00
2013-11-2,-200.0,0.0,200.0,-99.9,-99.9,-99.9,0,0,100,0.00,40.00,0,0,0,0.00
2013-11-8,11.0,10.0,9.0,9.0,8.0,7.0,90,90,89,0.00,40.00,0,0,0,0.00
2013-11-9,-200.0,0.0,200.0,-99.9,-99.9,-99.9,0,0,100,0.00,40.00,0,0,0,0.00
2013-11-10,37.0,33.3,23.0,28.0,24.8,16.0,93,71,57,0.00,40.00,0,0,0,0.01
2013-11-11,18.0,16.3,15.0,10.0,8.7,7.0,71,69,68,0.00,40.00,0,0,0,0.00
2013-11-13,38.0,38.0,38.0,30.0,30.0,30.0,73,73,73,0.00,40.00,0,0,0,0.00
2013-11-14,31.0,31.0,31.0,28.0,28.0,28.0,91,91,91,0.00,40.00,0,0,0,0.00